Time;durP1;ratioP1;P1;durP2;ratioP2;P2;SDS_P1;SDS_P2;PMS_P1;PMS_P2;Temp;Humidity;BMP_temperature;BMP_pressure;BME280_temperature;BME280_humidity;BME280_pressure;Samples;Min_cycle;Max_cycle;Signal;HPM_P1;HPM_P2
2023/05/28 00:01:49;;;;;;;18.08;4.25;;;9.70;99.90;;;;;;5037836;28;20052;-78
2023/05/28 00:04:16;;;;;;;13.77;4.82;;;9.70;99.90;;;;;;5054577;28;20037;-78
2023/05/28 00:06:43;;;;;;;16.65;4.22;;;9.70;99.90;;;;;;5056025;28;20396;-78
2023/05/28 00:09:10;;;;;;;13.18;4.22;;;9.70;99.90;;;;;;5053197;28;20050;-78
2023/05/28 00:11:36;;;;;;;10.07;4.13;;;9.70;99.90;;;;;;5036887;28;20049;-78
2023/05/28 00:14:03;;;;;;;15.90;4.15;;;9.70;99.90;;;;;;5055764;28;20053;-78
2023/05/28 00:16:31;;;;;;;12.52;4.82;;;9.60;99.90;;;;;;5020732;28;20143;-78
2023/05/28 00:18:57;;;;;;;13.10;4.40;;;9.60;99.90;;;;;;5038665;28;20071;-78
2023/05/28 00:21:26;;;;;;;14.77;5.35;;;9.60;99.90;;;;;;5037687;28;20421;-79
2023/05/28 00:23:52;;;;;;;12.10;4.80;;;9.60;99.90;;;;;;5054923;28;20033;-78
2023/05/28 00:26:19;;;;;;;16.17;5.07;;;9.50;99.90;;;;;;5055479;28;20045;-77
2023/05/28 00:28:47;;;;;;;13.50;4.85;;;9.50;99.90;;;;;;5038022;28;20379;-78
2023/05/28 00:31:15;;;;;;;13.77;5.05;;;9.50;99.90;;;;;;5053807;28;20107;-77
2023/05/28 00:33:43;;;;;;;17.52;6.10;;;9.40;99.90;;;;;;5055573;28;20049;-78
2023/05/28 00:36:10;;;;;;;15.32;5.22;;;9.40;99.90;;;;;;5054308;28;20387;-77
2023/05/28 00:38:37;;;;;;;18.90;5.45;;;9.40;99.90;;;;;;5037698;28;20055;-77
2023/05/28 00:41:04;;;;;;;15.35;5.07;;;9.30;99.90;;;;;;5037329;28;20475;-78
2023/05/28 00:43:31;;;;;;;12.65;5.25;;;9.30;99.90;;;;;;5015592;28;1122171;-78
2023/05/28 00:45:58;;;;;;;18.98;5.25;;;9.20;99.90;;;;;;5056201;28;20464;-77
2023/05/28 00:48:25;;;;;;;14.68;4.60;;;9.20;99.90;;;;;;5038900;28;20045;-78
2023/05/28 00:50:52;;;;;;;12.20;5.13;;;9.20;99.90;;;;;;5037259;28;20131;-78
2023/05/28 00:53:18;;;;;;;15.68;5.05;;;9.10;99.90;;;;;;5038296;28;20361;-78
2023/05/28 00:55:45;;;;;;;11.30;4.72;;;9.00;99.90;;;;;;5037376;28;20049;-78
2023/05/28 00:58:12;;;;;;;12.05;4.30;;;9.00;99.90;;;;;;5055952;28;20033;-77
2023/05/28 01:00:39;;;;;;;13.57;4.72;;;9.00;99.90;;;;;;5055701;28;20095;-78
2023/05/28 01:03:06;;;;;;;12.95;4.75;;;9.00;99.90;;;;;;5055049;28;20374;-77
2023/05/28 01:05:34;;;;;;;11.02;4.68;;;9.00;99.90;;;;;;5055895;28;20047;-78
2023/05/28 01:08:01;;;;;;;15.30;4.68;;;8.90;99.90;;;;;;5038438;28;20076;-78
2023/05/28 01:10:27;;;;;;;15.70;4.57;;;8.90;99.90;;;;;;5035969;28;20037;-78
2023/05/28 01:12:54;;;;;;;12.90;4.57;;;8.80;99.90;;;;;;5056223;28;20072;-78
2023/05/28 01:15:21;;;;;;;11.43;4.22;;;8.90;99.90;;;;;;5055694;28;20430;-78
2023/05/28 01:17:48;;;;;;;13.05;4.95;;;8.80;99.90;;;;;;5054492;28;20077;-78
2023/05/28 01:20:14;;;;;;;11.82;4.80;;;8.80;99.90;;;;;;5037734;28;20521;-78
2023/05/28 01:22:45;;;;;;;10.23;4.10;;;8.70;99.90;;;;;;5054552;28;20052;-78
2023/05/28 01:25:12;;;;;;;10.82;5.05;;;8.70;99.90;;;;;;5038145;28;20044;-78
2023/05/28 01:27:43;;;;;;;11.98;4.97;;;8.70;99.90;;;;;;5022116;28;20049;-78
2023/05/28 01:30:09;;;;;;;14.90;5.40;;;8.60;99.90;;;;;;5036456;28;20468;-78
2023/05/28 01:32:36;;;;;;;11.48;4.40;;;8.60;99.90;;;;;;5038010;28;20037;-78
2023/05/28 01:35:03;;;;;;;14.75;5.13;;;8.60;99.90;;;;;;5055201;28;20150;-79
2023/05/28 01:37:30;;;;;;;14.98;4.55;;;8.50;99.90;;;;;;5036809;28;20060;-78
2023/05/28 01:39:57;;;;;;;15.68;5.03;;;8.50;99.90;;;;;;5037022;28;20132;-78
2023/05/28 01:42:24;;;;;;;13.43;4.30;;;8.40;99.90;;;;;;5044394;28;20045;-78
2023/05/28 01:44:53;;;;;;;11.55;4.18;;;8.40;99.90;;;;;;5074573;28;20045;-78
2023/05/28 01:47:20;;;;;;;13.63;4.75;;;8.40;99.90;;;;;;5057558;28;20037;-78
2023/05/28 01:49:46;;;;;;;11.52;4.47;;;8.30;99.90;;;;;;5073206;28;20052;-78
2023/05/28 01:52:13;;;;;;;10.63;4.28;;;8.30;99.90;;;;;;5074117;28;20044;-78
2023/05/28 01:54:40;;;;;;;13.35;4.38;;;8.30;99.90;;;;;;5073931;28;20044;-78
2023/05/28 01:57:07;;;;;;;10.27;3.63;;;8.20;99.90;;;;;;5072901;28;20079;-78
2023/05/28 01:59:33;;;;;;;13.30;4.40;;;8.10;99.90;;;;;;5056982;28;20040;-78
2023/05/28 02:02:00;;;;;;;14.10;4.25;;;8.00;99.90;;;;;;5057310;28;20037;-78
2023/05/28 02:04:27;;;;;;;10.23;4.35;;;8.00;99.90;;;;;;5072721;28;20048;-78
2023/05/28 02:06:53;;;;;;;12.63;4.60;;;8.00;99.90;;;;;;5073778;28;20086;-78
2023/05/28 02:09:20;;;;;;;11.00;4.47;;;8.00;99.90;;;;;;5072754;28;20053;-78
2023/05/28 02:11:47;;;;;;;10.02;4.28;;;7.90;99.90;;;;;;5073569;28;20098;-78
2023/05/28 02:14:16;;;;;;;12.05;4.47;;;7.90;99.90;;;;;;5074729;28;20068;-77
2023/05/28 02:16:43;;;;;;;9.43;4.07;;;8.00;99.90;;;;;;5072674;28;20139;-78
2023/05/28 02:19:11;;;;;;;10.05;3.83;;;7.90;99.90;;;;;;5057134;28;20072;-78
2023/05/28 02:21:38;;;;;;;12.77;4.57;;;7.90;99.90;;;;;;5073074;28;20047;-78
2023/05/28 02:24:04;;;;;;;11.68;4.45;;;7.90;99.90;;;;;;5072578;28;20041;-77
2023/05/28 02:26:31;;;;;;;21.30;5.00;;;7.90;99.90;;;;;;5074518;28;20090;-78
2023/05/28 02:28:59;;;;;;;12.88;4.70;;;7.90;99.90;;;;;;5072662;28;20068;-78
2023/05/28 02:31:26;;;;;;;9.93;4.18;;;7.80;99.90;;;;;;5073188;28;20135;-78
2023/05/28 02:33:52;;;;;;;12.32;4.40;;;7.80;99.90;;;;;;5073683;28;20471;-78
2023/05/28 02:36:20;;;;;;;12.25;5.10;;;7.70;99.90;;;;;;5073500;28;20048;-78
2023/05/28 02:38:47;;;;;;;12.63;4.45;;;7.70;99.90;;;;;;5074402;28;20043;-78
2023/05/28 02:41:14;;;;;;;12.02;4.55;;;7.70;99.90;;;;;;5073011;28;20074;-78
2023/05/28 02:43:46;;;;;;;19.63;5.32;;;7.70;99.90;;;;;;5056242;28;20371;-78
2023/05/28 02:46:12;;;;;;;15.95;5.38;;;7.60;99.90;;;;;;5054523;28;20033;-77
2023/05/28 02:48:39;;;;;;;13.27;4.45;;;7.60;99.90;;;;;;5036642;28;20049;-78
2023/05/28 02:51:08;;;;;;;15.90;4.55;;;7.60;99.90;;;;;;5035464;28;20053;-78
2023/05/28 02:53:49;;;;;;;14.47;6.10;;;7.60;99.90;;;;;;5054467;28;20044;-78
2023/05/28 02:56:16;;;;;;;15.55;5.07;;;7.60;99.90;;;;;;5035724;28;20131;-78
2023/05/28 02:58:45;;;;;;;14.93;5.28;;;7.60;99.90;;;;;;5036793;28;20052;-78
2023/05/28 03:01:13;;;;;;;14.68;4.93;;;7.50;99.90;;;;;;5036139;28;20040;-78
2023/05/28 03:03:40;;;;;;;12.95;4.90;;;7.50;99.90;;;;;;5035608;28;20375;-78
2023/05/28 03:06:07;;;;;;;17.15;5.10;;;7.50;99.90;;;;;;5036813;28;20037;-78
2023/05/28 03:08:54;;;;;;;18.95;5.65;;;7.40;99.90;;;;;;5054038;28;20075;-78
2023/05/28 03:11:21;;;;;;;13.98;5.22;;;7.40;99.90;;;;;;5053981;28;20041;-78
2023/05/28 03:13:49;;;;;;;14.20;4.38;;;7.30;99.90;;;;;;5054027;28;20044;-78
2023/05/28 03:16:17;;;;;;;10.52;4.35;;;7.30;99.90;;;;;;5035342;28;20570;-78
2023/05/28 03:18:44;;;;;;;12.60;5.00;;;7.20;99.90;;;;;;5036580;28;20044;-78
2023/05/28 03:21:11;;;;;;;13.93;4.78;;;7.30;99.90;;;;;;5019829;28;20136;-78
2023/05/28 03:23:38;;;;;;;11.75;4.28;;;7.20;99.90;;;;;;5035381;28;20037;-78
2023/05/28 03:26:25;;;;;;;11.57;4.68;;;7.20;99.90;;;;;;5043106;28;20057;-78
2023/05/28 03:28:52;;;;;;;12.10;4.80;;;7.20;99.90;;;;;;5036015;28;20103;-78
2023/05/28 03:31:33;;;;;;;12.75;4.13;;;7.20;99.90;;;;;;5053702;28;20051;-78
2023/05/28 03:34:01;;;;;;;13.70;5.13;;;7.20;99.90;;;;;;5055161;28;20037;-78
2023/05/28 03:36:29;;;;;;;14.38;4.45;;;7.10;99.90;;;;;;5038699;28;20048;-78
2023/05/28 03:38:56;;;;;;;19.13;5.25;;;7.10;99.90;;;;;;5039737;28;20041;-78
2023/05/28 03:41:25;;;;;;;12.30;4.57;;;7.10;99.90;;;;;;5023344;28;20217;-78
2023/05/28 03:43:52;;;;;;;17.38;5.22;;;7.10;99.90;;;;;;5071127;28;20361;-78
2023/05/28 03:46:19;;;;;;;16.02;5.45;;;7.00;99.90;;;;;;5076408;28;20170;-79
2023/05/28 03:48:46;;;;;;;14.02;4.40;;;7.00;99.90;;;;;;5076429;28;20052;-78
2023/05/28 03:51:13;;;;;;;9.75;3.72;;;6.90;99.90;;;;;;5075012;28;20098;-79
2023/05/28 03:53:40;;;;;;;11.43;4.85;;;6.90;99.90;;;;;;5077149;28;20115;-78
2023/05/28 03:56:06;;;;;;;12.70;4.65;;;6.90;99.90;;;;;;5075130;28;20131;-78
2023/05/28 03:58:33;;;;;;;10.90;4.60;;;6.90;99.90;;;;;;5059620;28;20056;-78
2023/05/28 04:01:00;;;;;;;9.85;4.45;;;6.90;99.90;;;;;;5075948;28;20072;-77
2023/05/28 04:03:27;;;;;;;14.10;5.10;;;6.80;99.90;;;;;;5075060;28;20037;-78
2023/05/28 04:05:54;;;;;;;13.23;5.30;;;6.80;99.90;;;;;;5076131;28;20041;-78
2023/05/28 04:08:21;;;;;;;10.82;4.32;;;6.80;99.90;;;;;;5076313;28;20044;-78
2023/05/28 04:10:49;;;;;;;11.60;4.68;;;6.80;99.90;;;;;;5074655;28;20528;-78
2023/05/28 04:13:17;;;;;;;11.45;4.63;;;6.90;99.90;;;;;;5076100;28;20044;-78
2023/05/28 04:15:43;;;;;;;9.25;3.78;;;6.90;99.90;;;;;;5058272;28;20045;-78
2023/05/28 04:18:10;;;;;;;14.82;4.97;;;6.90;99.90;;;;;;5075460;28;20083;-78
2023/05/28 04:20:37;;;;;;;11.90;4.40;;;6.90;99.90;;;;;;5075284;28;20040;-78
2023/05/28 04:23:04;;;;;;;12.75;4.78;;;6.80;99.90;;;;;;5058141;28;20048;-78
2023/05/28 04:25:31;;;;;;;9.55;4.68;;;6.90;99.90;;;;;;5075764;28;20041;-78
2023/05/28 04:28:00;;;;;;;12.75;5.30;;;6.90;99.90;;;;;;5075740;28;20371;-78
2023/05/28 04:30:27;;;;;;;12.85;4.80;;;6.90;99.90;;;;;;5074210;28;20047;-78
2023/05/28 04:32:55;;;;;;;11.13;4.25;;;6.90;99.90;;;;;;5075576;28;20053;-78
2023/05/28 04:35:22;;;;;;;17.70;4.95;;;6.90;99.90;;;;;;5076580;28;20040;-79
2023/05/28 04:37:53;;;;;;;13.23;4.65;;;7.00;99.90;;;;;;5075483;28;20048;-78
2023/05/28 04:40:21;;;;;;;15.60;4.75;;;7.00;99.90;;;;;;5074914;28;20041;-78
2023/05/28 04:42:48;;;;;;;16.30;4.32;;;7.00;99.90;;;;;;5074151;28;20084;-77
2023/05/28 04:45:16;;;;;;;13.38;5.05;;;7.10;99.90;;;;;;5074250;28;20045;-78
2023/05/28 04:47:44;;;;;;;14.93;4.90;;;7.10;99.90;;;;;;5075390;28;20037;-78
2023/05/28 04:50:11;;;;;;;11.73;4.78;;;7.20;99.90;;;;;;5057249;28;20494;-78
2023/05/28 04:52:38;;;;;;;10.68;4.57;;;7.40;99.90;;;;;;5076121;28;20045;-78
2023/05/28 04:55:05;;;;;;;9.25;4.15;;;7.50;99.90;;;;;;5075022;28;20052;-78
2023/05/28 04:57:32;;;;;;;10.52;4.65;;;7.70;99.90;;;;;;5074086;28;20509;-79
2023/05/28 05:00:00;;;;;;;11.63;5.20;;;7.80;99.90;;;;;;5058170;28;20049;-78
2023/05/28 05:02:28;;;;;;;16.30;5.38;;;8.00;99.90;;;;;;5057892;28;20036;-78
2023/05/28 05:04:56;;;;;;;14.75;5.85;;;8.10;99.90;;;;;;5074990;28;20041;-78
2023/05/28 05:07:23;;;;;;;18.75;5.97;;;8.30;99.90;;;;;;5075018;28;20187;-78
2023/05/28 05:09:50;;;;;;;20.13;6.18;;;8.40;99.90;;;;;;5073051;28;20045;-78
2023/05/28 05:12:17;;;;;;;11.85;5.50;;;8.60;99.90;;;;;;5074906;28;20040;-79
2023/05/28 05:14:43;;;;;;;16.63;5.72;;;8.70;99.90;;;;;;5074654;28;20056;-80
2023/05/28 05:17:11;;;;;;;21.38;6.40;;;8.70;99.90;;;;;;5073743;28;20054;-78
2023/05/28 05:19:38;;;;;;;15.38;6.10;;;8.70;99.90;;;;;;5074299;28;20059;-79
2023/05/28 05:22:04;;;;;;;21.27;6.38;;;8.90;99.90;;;;;;5074728;28;20558;-78
2023/05/28 05:24:32;;;;;;;16.70;6.97;;;9.10;99.90;;;;;;5073567;28;20109;-78
2023/05/28 05:26:58;;;;;;;19.00;6.30;;;9.20;99.90;;;;;;5074415;28;20471;-79
2023/05/28 05:29:25;;;;;;;17.02;5.60;;;9.40;99.90;;;;;;5072993;28;20060;-78
2023/05/28 05:31:52;;;;;;;15.18;5.97;;;9.40;99.90;;;;;;5074653;28;20067;-78
2023/05/28 05:34:19;;;;;;;16.52;6.25;;;9.50;99.90;;;;;;5074438;28;20067;-79
2023/05/28 05:36:46;;;;;;;19.88;6.93;;;9.70;99.90;;;;;;5073635;28;20072;-78
2023/05/28 05:39:37;;;;;;;21.63;6.80;;;9.90;99.90;;;;;;5073816;28;20047;-79
2023/05/28 05:42:33;;;;;;;17.13;6.40;;;10.10;99.90;;;;;;5058100;28;20041;-78
2023/05/28 05:44:59;;;;;;;16.90;7.00;;;10.30;99.90;;;;;;5037727;28;20055;-78
2023/05/28 05:47:26;;;;;;;18.13;7.05;;;10.40;99.90;;;;;;5037533;28;20064;-78
2023/05/28 05:49:54;;;;;;;19.77;6.72;;;10.60;99.90;;;;;;5035905;28;20051;-79
2023/05/28 05:52:22;;;;;;;15.85;6.45;;;10.70;99.90;;;;;;5021699;28;20052;-79
2023/05/28 05:54:52;;;;;;;22.38;7.72;;;10.80;99.90;;;;;;5037382;28;20053;-78
2023/05/28 05:57:19;;;;;;;19.15;7.22;;;11.00;99.90;;;;;;5036044;28;20060;-79
2023/05/28 05:59:46;;;;;;;21.90;7.25;;;11.20;99.90;;;;;;5036470;28;20037;-79
2023/05/28 06:02:14;;;;;;;18.15;7.22;;;11.30;99.90;;;;;;5037456;28;20380;-79
2023/05/28 06:04:41;;;;;;;16.55;6.70;;;11.40;99.90;;;;;;5036627;28;20033;-78
2023/05/28 06:07:34;;;;;;;20.85;7.78;;;11.50;99.90;;;;;;5024227;28;20040;-78
2023/05/28 06:10:17;;;;;;;19.20;6.85;;;11.70;99.90;;;;;;5035625;28;20072;-78
2023/05/28 06:12:44;;;;;;;21.88;8.13;;;11.90;99.90;;;;;;5037012;28;20106;-79
2023/05/28 06:15:12;;;;;;;18.92;6.85;;;12.00;99.90;;;;;;5037099;28;20367;-79
2023/05/28 06:17:41;;;;;;;19.08;7.03;;;12.00;99.90;;;;;;5036690;28;20071;-79
2023/05/28 06:20:08;;;;;;;18.65;6.70;;;12.10;99.90;;;;;;5036772;28;20036;-78
2023/05/28 06:22:35;;;;;;;25.45;7.22;;;12.30;99.90;;;;;;5036232;28;20055;-79
2023/05/28 06:25:03;;;;;;;24.83;7.55;;;12.30;99.90;;;;;;5037133;28;20468;-79
2023/05/28 06:27:31;;;;;;;19.40;7.25;;;12.50;99.90;;;;;;5036874;28;20048;-79
2023/05/28 06:29:59;;;;;;;17.90;6.82;;;12.60;99.90;;;;;;5035913;28;20047;-79
2023/05/28 06:32:26;;;;;;;18.00;6.75;;;12.80;99.90;;;;;;5054994;28;20045;-80
2023/05/28 06:34:52;;;;;;;21.27;6.45;;;12.90;99.90;;;;;;5036869;28;20075;-79
2023/05/28 06:37:21;;;;;;;20.73;7.32;;;13.20;99.90;;;;;;5035993;28;20059;-79
2023/05/28 06:39:47;;;;;;;19.73;6.78;;;13.30;99.90;;;;;;5036597;28;20483;-79
2023/05/28 06:42:15;;;;;;;17.25;6.90;;;13.40;99.90;;;;;;5042115;28;20052;-79
2023/05/28 06:45:18;;;;;;;17.98;6.15;;;13.50;99.90;;;;;;5057636;28;20466;-79
2023/05/28 06:47:45;;;;;;;16.15;5.88;;;13.40;99.90;;;;;;5073937;28;20098;-80
2023/05/28 06:50:12;;;;;;;19.75;6.47;;;13.40;99.90;;;;;;5071616;28;20044;-80
2023/05/28 06:52:39;;;;;;;17.83;6.30;;;13.40;99.90;;;;;;5056848;28;20056;-79
2023/05/28 06:55:08;;;;;;;18.77;6.25;;;13.60;99.90;;;;;;5056807;28;20135;-78
2023/05/28 06:57:38;;;;;;;26.02;6.95;;;13.70;99.90;;;;;;5072372;28;20114;-85
2023/05/28 07:00:16;;;;;;;24.42;7.18;;;13.80;99.90;;;;;;5057325;28;20048;-77
2023/05/28 07:03:03;;;;;;;15.35;5.72;;;14.10;99.90;;;;;;5072329;28;20052;-79
2023/05/28 07:05:53;;;;;;;22.50;6.38;;;14.20;99.90;;;;;;5045637;28;20056;-79
2023/05/28 07:08:20;;;;;;;15.82;6.03;;;14.40;99.90;;;;;;5073512;28;20127;-77
2023/05/28 07:10:47;;;;;;;18.80;6.60;;;14.60;99.90;;;;;;5059190;28;20068;-77
2023/05/28 07:13:15;;;;;;;20.58;6.20;;;14.70;99.90;;;;;;5077170;28;20040;-77
2023/05/28 07:15:41;;;;;;;17.15;5.82;;;14.80;99.90;;;;;;5076124;28;20101;-77
2023/05/28 07:18:08;;;;;;;14.45;5.65;;;15.00;99.90;;;;;;5077140;28;20044;-77
2023/05/28 07:20:35;;;;;;;15.27;5.50;;;15.10;99.90;;;;;;5076668;28;20471;-77
2023/05/28 07:23:20;;;;;;;17.30;5.43;;;15.20;99.90;;;;;;5075930;28;20072;-77
2023/05/28 07:25:47;;;;;;;18.08;5.47;;;15.30;99.90;;;;;;5060549;28;20052;-84
2023/05/28 07:28:14;;;;;;;13.40;5.20;;;15.40;99.90;;;;;;5060638;28;20042;-84
2023/05/28 07:30:41;;;;;;;14.40;4.50;;;15.50;99.90;;;;;;5075577;28;20139;-77
2023/05/28 07:33:07;;;;;;;14.40;4.68;;;15.60;99.90;;;;;;5076739;28;20467;-76
2023/05/28 07:35:35;;;;;;;12.90;4.63;;;15.70;99.90;;;;;;5060364;28;20113;-77
2023/05/28 07:38:02;;;;;;;11.35;3.97;;;15.90;99.90;;;;;;5076533;28;20044;-77
2023/05/28 07:40:29;;;;;;;11.52;3.80;;;16.00;99.90;;;;;;5058864;28;20064;-77
2023/05/28 07:43:04;;;;;;;11.45;3.38;;;16.10;99.90;;;;;;5059875;28;20059;-77
2023/05/28 07:45:31;;;;;;;7.10;3.10;;;16.20;99.90;;;;;;5076514;28;20372;-77
2023/05/28 07:47:58;;;;;;;9.27;3.42;;;16.40;99.90;;;;;;5076421;28;20040;-77
2023/05/28 07:50:44;;;;;;;9.98;3.30;;;16.60;99.90;;;;;;5075213;28;20045;-77
2023/05/28 07:53:17;;;;;;;10.85;3.50;;;16.60;99.90;;;;;;5076464;28;20463;-77
2023/05/28 07:55:44;;;;;;;9.52;3.08;;;16.60;99.90;;;;;;5072091;28;20048;-77
2023/05/28 07:58:12;;;;;;;7.43;3.10;;;16.70;99.90;;;;;;5056302;28;20083;-77
2023/05/28 08:00:40;;;;;;;11.02;3.50;;;16.80;99.90;;;;;;5039406;28;20048;-77
2023/05/28 08:03:07;;;;;;;8.88;3.30;;;16.90;99.90;;;;;;5055155;28;20032;-77
2023/05/28 08:05:39;;;;;;;10.32;3.47;;;16.90;99.90;;;;;;5040497;28;20412;-77
2023/05/28 08:08:07;;;;;;;10.27;3.25;;;16.90;99.90;;;;;;5072904;28;20045;-77
2023/05/28 08:10:36;;;;;;;9.95;3.17;;;17.00;99.90;;;;;;5054762;28;20041;-77
2023/05/28 08:13:04;;;;;;;10.10;3.15;;;17.20;99.90;;;;;;5056050;28;20139;-77
2023/05/28 08:15:31;;;;;;;9.13;2.72;;;17.20;99.90;;;;;;5056267;28;20049;-77
2023/05/28 08:17:59;;;;;;;8.43;2.95;;;17.20;99.90;;;;;;5054965;28;20076;-77
2023/05/28 08:20:29;;;;;;;9.90;2.80;;;17.20;99.90;;;;;;5055203;28;20091;-77
2023/05/28 08:23:03;;;;;;;8.45;2.90;;;17.30;99.90;;;;;;5054957;28;20533;-77
2023/05/28 08:25:30;;;;;;;10.27;3.20;;;17.40;99.90;;;;;;5039467;28;20052;-78
2023/05/28 08:28:05;;;;;;;10.48;2.92;;;17.60;99.90;;;;;;5040189;28;20036;-79
2023/05/28 08:30:32;;;;;;;7.20;2.50;;;17.60;99.90;;;;;;5037460;28;20388;-77
2023/05/28 08:33:06;;;;;;;8.35;2.80;;;17.50;99.90;;;;;;5056255;28;20206;-78
2023/05/28 08:35:33;;;;;;;6.88;2.50;;;17.70;99.90;;;;;;5055747;28;20064;-78
2023/05/28 08:38:01;;;;;;;7.43;2.10;;;17.80;99.90;;;;;;5054724;28;20375;-77
2023/05/28 08:40:42;;;;;;;5.45;2.17;;;17.90;99.90;;;;;;5056192;28;20040;-77
2023/05/28 08:43:09;;;;;;;6.13;2.20;;;18.00;98.80;;;;;;5043641;28;20057;-78
2023/05/28 08:45:37;;;;;;;4.97;2.03;;;18.00;96.10;;;;;;5018924;28;20033;-77
2023/05/28 08:48:06;;;;;;;6.53;2.10;;;18.10;94.20;;;;;;5018936;28;20072;-77
2023/05/28 08:50:36;;;;;;;6.90;2.15;;;18.20;95.10;;;;;;5035116;28;20072;-78
2023/05/28 08:53:15;;;;;;;6.60;2.30;;;18.30;93.00;;;;;;5018652;28;20037;-77
2023/05/28 08:55:43;;;;;;;5.25;1.65;;;18.50;91.60;;;;;;5017681;28;20060;-77
2023/05/28 08:58:14;;;;;;;5.32;2.00;;;18.80;92.30;;;;;;5018773;28;20065;-78
2023/05/28 09:00:42;;;;;;;6.35;2.10;;;19.00;90.20;;;;;;5018326;28;20135;-78
2023/05/28 09:03:42;;;;;;;5.88;1.73;;;18.90;86.90;;;;;;4991447;28;20088;-77
2023/05/28 09:06:17;;;;;;;5.22;2.13;;;19.00;84.40;;;;;;5018596;28;20391;-77
2023/05/28 09:08:44;;;;;;;7.93;1.83;;;19.00;81.50;;;;;;5035774;28;20472;-78
2023/05/28 09:11:20;;;;;;;6.78;2.08;;;18.90;81.30;;;;;;5002409;28;20069;-78
2023/05/28 09:13:47;;;;;;;4.70;1.48;;;19.10;79.30;;;;;;5018438;28;20480;-77
2023/05/28 09:16:16;;;;;;;5.28;1.80;;;19.10;75.30;;;;;;5017135;28;20037;-78
2023/05/28 09:18:43;;;;;;;6.35;1.83;;;19.30;74.80;;;;;;5017451;28;20140;-77
2023/05/28 09:21:14;;;;;;;12.93;2.00;;;19.30;77.00;;;;;;5018314;28;20099;-77
2023/05/28 09:23:40;;;;;;;5.40;2.03;;;19.40;74.00;;;;;;5017202;28;20045;-77
2023/05/28 09:26:19;;;;;;;5.85;2.15;;;19.50;72.00;;;;;;5019775;28;20046;-78
2023/05/28 09:28:54;;;;;;;6.30;2.08;;;19.60;72.40;;;;;;5017970;28;20053;-77
2023/05/28 09:31:21;;;;;;;7.22;2.10;;;19.70;70.60;;;;;;5034250;28;20045;-78
2023/05/28 09:33:48;;;;;;;4.72;1.75;;;19.90;72.40;;;;;;5035541;28;20484;-77
2023/05/28 09:36:14;;;;;;;5.90;2.20;;;20.10;72.40;;;;;;5034452;28;20045;-77
2023/05/28 09:38:41;;;;;;;6.38;2.17;;;20.20;68.50;;;;;;5035003;28;20041;-78
2023/05/28 09:41:09;;;;;;;6.95;2.17;;;20.20;69.20;;;;;;5017858;28;20435;-78
2023/05/28 09:43:36;;;;;;;5.65;2.03;;;20.30;69.00;;;;;;5034005;28;20054;-78
2023/05/28 09:46:02;;;;;;;6.65;2.42;;;20.40;67.60;;;;;;5018113;28;20073;-77
2023/05/28 09:48:29;;;;;;;5.47;2.30;;;20.40;71.80;;;;;;5018141;28;20488;-78
2023/05/28 09:50:56;;;;;;;5.90;2.20;;;20.50;70.00;;;;;;5016470;28;20472;-78
2023/05/28 09:53:23;;;;;;;12.90;2.50;;;20.70;67.00;;;;;;5035080;28;20426;-78
2023/05/28 09:55:50;;;;;;;5.97;2.35;;;20.80;69.40;;;;;;5034021;28;20423;-78
2023/05/28 09:58:17;;;;;;;6.55;2.78;;;20.90;67.40;;;;;;5035072;28;20045;-78
2023/05/28 10:00:44;;;;;;;5.95;2.60;;;20.90;67.30;;;;;;5034687;28;20076;-78
2023/05/28 10:03:11;;;;;;;6.50;2.50;;;21.00;68.00;;;;;;5033830;28;20033;-77
2023/05/28 10:05:38;;;;;;;6.93;2.78;;;21.20;66.10;;;;;;5001328;28;20211;-78
2023/05/28 10:08:04;;;;;;;7.07;2.72;;;21.40;70.40;;;;;;5034938;28;20407;-77
2023/05/28 10:10:31;;;;;;;7.78;3.05;;;21.80;69.50;;;;;;5033117;28;20132;-78
2023/05/28 10:12:58;;;;;;;7.28;3.35;;;21.70;66.10;;;;;;5034808;28;20049;-78
2023/05/28 10:15:25;;;;;;;8.55;3.42;;;21.90;64.60;;;;;;5034887;28;20084;-79
2023/05/28 10:17:52;;;;;;;9.05;3.97;;;22.00;64.10;;;;;;5033788;28;20044;-78
2023/05/28 10:20:19;;;;;;;9.13;4.78;;;21.90;64.20;;;;;;5034536;28;20363;-78
2023/05/28 10:22:46;;;;;;;10.02;4.55;;;21.90;62.60;;;;;;5016059;28;20525;-78
2023/05/28 10:25:12;;;;;;;11.07;4.40;;;22.00;64.30;;;;;;5017422;28;20148;-78
2023/05/28 10:27:39;;;;;;;12.15;4.65;;;21.80;62.40;;;;;;5034733;28;20037;-78
2023/05/28 10:30:06;;;;;;;10.35;4.88;;;22.00;60.90;;;;;;5033223;28;20049;-78
2023/05/28 10:32:34;;;;;;;9.15;4.68;;;22.10;60.60;;;;;;5017234;28;20448;-78
2023/05/28 10:35:02;;;;;;;10.40;6.65;;;22.40;59.60;;;;;;5000924;28;20083;-78
2023/05/28 10:37:28;;;;;;;11.57;5.43;;;22.70;60.00;;;;;;5033346;28;20065;-77
2023/05/28 10:39:55;;;;;;;9.95;5.20;;;22.60;58.30;;;;;;5034147;28;20428;-78
2023/05/28 10:42:22;;;;;;;11.43;7.10;;;22.80;60.60;;;;;;5033630;28;20056;-77
2023/05/28 10:44:48;;;;;;;11.45;7.50;;;22.80;61.20;;;;;;5038667;28;20045;-78
2023/05/28 10:47:16;;;;;;;11.07;4.95;;;23.10;62.30;;;;;;5021249;28;20368;-78
2023/05/28 10:49:43;;;;;;;11.30;7.35;;;23.30;60.90;;;;;;5037517;28;20045;-77
2023/05/28 10:52:10;;;;;;;11.80;8.10;;;23.40;60.00;;;;;;5004614;28;20049;-77
2023/05/28 10:54:36;;;;;;;13.50;8.15;;;23.60;60.00;;;;;;5038498;28;20069;-78
2023/05/28 10:57:03;;;;;;;13.63;8.77;;;23.70;60.40;;;;;;5020088;28;20475;-78
2023/05/28 10:59:30;;;;;;;12.82;8.60;;;23.90;59.00;;;;;;5037614;28;20133;-77
2023/05/28 11:01:58;;;;;;;13.52;9.60;;;24.20;58.50;;;;;;5038238;28;20072;-78
2023/05/28 11:04:24;;;;;;;12.48;9.20;;;24.00;59.70;;;;;;5019827;28;20065;-78
2023/05/28 11:06:51;;;;;;;13.68;9.20;;;24.20;58.10;;;;;;5038480;28;20485;-77
2023/05/28 11:09:18;;;;;;;14.50;8.07;;;24.20;57.80;;;;;;5036864;28;20371;-78
2023/05/28 11:11:44;;;;;;;13.20;9.38;;;24.50;57.90;;;;;;5020662;28;20048;-78
2023/05/28 11:14:11;;;;;;;15.55;10.68;;;24.90;59.40;;;;;;5038109;28;20065;-78
2023/05/28 11:16:38;;;;;;;15.35;11.15;;;24.90;56.80;;;;;;5036999;28;20472;-78
2023/05/28 11:19:04;;;;;;;15.80;10.85;;;25.00;57.50;;;;;;5037573;28;20045;-78
2023/05/28 11:21:35;;;;;;;14.70;10.35;;;25.10;57.10;;;;;;5020834;28;20041;-78
2023/05/28 11:24:02;;;;;;;16.20;9.82;;;25.30;57.00;;;;;;5036961;28;20056;-78
2023/05/28 11:26:29;;;;;;;14.52;10.38;;;25.30;56.70;;;;;;5037861;28;20539;-78
2023/05/28 11:28:55;;;;;;;23.35;10.68;;;25.60;57.80;;;;;;5037572;28;20425;-78
2023/05/28 11:31:22;;;;;;;14.70;10.65;;;25.80;56.50;;;;;;5020057;28;20059;-77
2023/05/28 11:33:49;;;;;;;14.98;10.45;;;25.90;56.70;;;;;;5037839;28;20377;-77
2023/05/28 11:36:15;;;;;;;15.45;10.82;;;25.90;56.60;;;;;;5036845;28;20055;-78
2023/05/28 11:38:42;;;;;;;14.15;10.10;;;26.00;56.30;;;;;;5020255;28;20041;-78
2023/05/28 11:41:09;;;;;;;14.25;10.23;;;26.20;55.70;;;;;;5037580;28;20128;-77
2023/05/28 11:43:35;;;;;;;15.50;10.77;;;26.40;56.20;;;;;;5036371;28;20111;-78
2023/05/28 11:46:02;;;;;;;16.60;11.10;;;26.30;55.60;;;;;;5019984;28;20378;-78
2023/05/28 11:48:29;;;;;;;15.48;10.10;;;26.10;54.60;;;;;;5036419;28;20050;-78
2023/05/28 11:50:56;;;;;;;15.07;10.55;;;26.00;54.90;;;;;;5019102;28;20128;-78
2023/05/28 11:53:22;;;;;;;15.80;9.80;;;26.10;54.80;;;;;;5020193;28;20468;-77
2023/05/28 11:55:49;;;;;;;14.52;9.90;;;26.20;53.90;;;;;;5018344;28;20067;-78
2023/05/28 11:58:16;;;;;;;13.73;9.32;;;26.60;54.10;;;;;;5037337;28;20383;-78
2023/05/28 12:00:43;;;;;;;12.55;9.18;;;26.60;52.40;;;;;;5036621;28;20069;-78
2023/05/28 12:03:10;;;;;;;16.27;10.38;;;26.90;52.80;;;;;;5036321;28;20531;-78
2023/05/28 12:05:38;;;;;;;15.82;9.45;;;27.20;51.10;;;;;;5037405;28;20037;-78
2023/05/28 12:08:04;;;;;;;15.25;10.57;;;27.00;50.40;;;;;;5019790;28;20053;-78
2023/05/28 12:10:31;;;;;;;14.70;10.68;;;27.00;52.00;;;;;;5018644;28;20052;-78
2023/05/28 12:12:59;;;;;;;15.27;10.50;;;27.30;52.90;;;;;;5036997;28;20522;-78
2023/05/28 12:15:26;;;;;;;14.52;9.90;;;27.40;52.30;;;;;;5019436;28;20140;-78
2023/05/28 12:17:53;;;;;;;15.95;10.38;;;27.60;53.10;;;;;;5035939;28;20038;-78
2023/05/28 12:20:20;;;;;;;16.60;9.95;;;27.60;52.10;;;;;;5036472;28;20510;-78
2023/05/28 12:22:47;;;;;;;15.70;9.88;;;27.10;51.80;;;;;;5035302;28;20360;-78
2023/05/28 12:25:13;;;;;;;14.27;9.68;;;27.20;52.50;;;;;;5019003;28;20128;-78
2023/05/28 12:27:40;;;;;;;12.88;8.98;;;27.30;52.20;;;;;;5018895;28;20045;-78
2023/05/28 12:30:07;;;;;;;14.25;8.82;;;27.40;51.60;;;;;;5017588;28;20061;-78
2023/05/28 12:32:33;;;;;;;13.35;8.77;;;27.90;54.20;;;;;;5019205;28;20411;-77
2023/05/28 12:35:00;;;;;;;14.27;8.70;;;28.40;52.90;;;;;;5019558;28;20555;-77
2023/05/28 12:37:29;;;;;;;11.60;8.05;;;28.10;51.60;;;;;;5018177;28;20580;-77
2023/05/28 12:39:55;;;;;;;13.07;7.90;;;28.10;52.10;;;;;;5033770;28;20508;-77
2023/05/28 12:42:22;;;;;;;11.98;8.45;;;27.90;49.40;;;;;;5034945;28;20065;-77
2023/05/28 12:44:49;;;;;;;13.73;8.20;;;28.20;49.00;;;;;;5019260;28;20537;-77
2023/05/28 12:47:15;;;;;;;11.75;7.93;;;28.30;51.40;;;;;;5002753;28;20079;-77
2023/05/28 12:49:42;;;;;;;12.27;7.93;;;28.20;50.30;;;;;;5017490;28;20538;-77